createdAt,value
2019-02-02T00:01:17.134Z,30.10
2019-02-02T00:04:05.633Z,29.40
2019-02-02T00:06:53.588Z,25.87
2019-02-02T00:09:41.882Z,26.77
2019-02-02T00:12:29.972Z,28.37
2019-02-02T00:15:18.446Z,26.07
2019-02-02T00:18:06.832Z,28.33
2019-02-02T00:20:54.685Z,29.13
2019-02-02T00:23:42.623Z,28.57
2019-02-02T00:26:30.673Z,28.37
2019-02-02T00:29:18.639Z,30.80
2019-02-02T00:32:06.252Z,30.10
2019-02-02T00:34:54.372Z,23.87
2019-02-02T00:37:42.440Z,28.60
2019-02-02T00:40:29.957Z,27.07
2019-02-02T00:43:17.886Z,27.87
2019-02-02T00:46:06.310Z,24.63
2019-02-02T00:48:54.178Z,23.60
2019-02-02T00:51:42.430Z,24.40
2019-02-02T00:54:30.264Z,23.60
2019-02-02T00:57:18.151Z,23.83
2019-02-02T01:00:08.387Z,24.17
2019-02-02T01:02:56.089Z,22.20
2019-02-02T01:05:44.362Z,23.73
2019-02-02T01:08:32.594Z,23.23
2019-02-02T01:11:20.747Z,22.90
2019-02-02T01:14:09.455Z,23.57
2019-02-02T01:16:57.528Z,21.63
2019-02-02T01:19:45.638Z,25.33
2019-02-02T01:22:33.368Z,24.80
2019-02-02T01:25:21.160Z,26.27
2019-02-02T01:28:09.136Z,21.80
2019-02-02T01:30:56.869Z,23.03
2019-02-02T01:33:44.724Z,22.67
2019-02-02T01:36:33.129Z,24.77
2019-02-02T01:39:21.037Z,25.10
2019-02-02T01:42:09.291Z,25.80
2019-02-02T01:44:57.351Z,22.77
2019-02-02T01:47:45.073Z,22.80
2019-02-02T01:50:33.030Z,22.60
2019-02-02T01:53:21.048Z,22.50
2019-02-02T01:56:09.025Z,22.53
2019-02-02T01:58:57.109Z,25.83
2019-02-02T02:01:45.001Z,26.63
2019-02-02T02:04:32.780Z,26.40
2019-02-02T02:07:20.927Z,25.03
2019-02-02T02:10:10.851Z,26.90
2019-02-02T02:12:59.000Z,29.30
2019-02-02T02:15:46.877Z,25.23
2019-02-02T02:18:35.089Z,27.10
2019-02-02T02:21:22.915Z,31.43
2019-02-02T02:24:10.854Z,28.53
2019-02-02T02:26:59.058Z,27.80
2019-02-02T02:29:46.890Z,25.53
2019-02-02T02:32:34.812Z,28.53
2019-02-02T02:35:23.035Z,31.67
2019-02-02T02:38:10.688Z,31.20
2019-02-02T02:40:58.623Z,30.53
2019-02-02T02:43:46.239Z,29.73
2019-02-02T02:46:34.557Z,31.10
2019-02-02T02:49:22.152Z,36.40
2019-02-02T02:52:10.288Z,37.83
2019-02-02T02:54:58.448Z,39.07
2019-02-02T02:57:46.826Z,45.83
2019-02-02T03:00:34.722Z,43.23
2019-02-02T03:03:22.557Z,39.47
2019-02-02T03:06:10.504Z,44.47
2019-02-02T03:08:58.928Z,49.10
2019-02-02T03:11:46.740Z,49.80
2019-02-02T03:14:34.834Z,41.03
2019-02-02T03:17:22.792Z,44.30
2019-02-02T03:20:11.929Z,40.50
2019-02-02T03:22:59.920Z,41.00
2019-02-02T03:25:47.747Z,42.77
2019-02-02T03:28:35.691Z,40.17
2019-02-02T03:31:24.092Z,39.87
2019-02-02T03:34:11.956Z,39.83
2019-02-02T03:37:00.052Z,35.00
2019-02-02T03:39:48.012Z,35.03
2019-02-02T03:42:36.200Z,37.23
2019-02-02T03:45:26.049Z,38.17
2019-02-02T03:48:14.180Z,31.87
2019-02-02T03:51:02.394Z,37.53
2019-02-02T03:53:50.477Z,34.77
2019-02-02T03:56:38.862Z,33.67
2019-02-02T03:59:26.671Z,36.00
2019-02-02T04:02:14.755Z,43.30
2019-02-02T04:05:02.401Z,40.53
2019-02-02T04:07:50.465Z,46.00
2019-02-02T04:10:38.426Z,42.90
2019-02-02T04:13:26.323Z,37.97
2019-02-02T04:16:14.499Z,41.57
2019-02-02T04:19:02.616Z,47.93
2019-02-02T04:21:50.124Z,47.23
2019-02-02T04:24:38.303Z,40.77
2019-02-02T04:27:26.586Z,44.37
2019-02-02T04:30:20.343Z,43.93
2019-02-02T04:33:08.371Z,46.07
2019-02-02T04:35:55.871Z,43.50
2019-02-02T04:38:43.963Z,41.60
2019-02-02T04:41:31.637Z,46.63
2019-02-02T04:44:19.941Z,47.20
2019-02-02T04:47:08.103Z,48.07
2019-02-02T04:49:55.955Z,42.43
2019-02-02T04:52:44.191Z,45.47
2019-02-02T04:55:32.024Z,48.90
2019-02-02T04:58:20.046Z,44.73
2019-02-02T05:01:07.939Z,43.00
2019-02-02T05:03:55.598Z,41.87
2019-02-02T05:06:43.378Z,42.77
2019-02-02T05:09:31.309Z,40.67
2019-02-02T05:12:19.169Z,45.77
2019-02-02T05:15:07.505Z,44.20
2019-02-02T05:17:55.296Z,52.67
2019-02-02T05:20:43.250Z,46.30
2019-02-02T05:23:31.239Z,44.20
2019-02-02T05:26:19.394Z,49.83
2019-02-02T05:29:07.184Z,55.33
2019-02-02T05:31:55.010Z,50.93
2019-02-02T05:34:42.895Z,50.33
2019-02-02T05:37:30.852Z,55.93
2019-02-02T05:40:19.564Z,51.33
2019-02-02T05:43:07.839Z,55.73
2019-02-02T05:45:55.870Z,61.67
2019-02-02T05:48:44.187Z,56.53
2019-02-02T05:51:31.841Z,50.47
2019-02-02T05:54:20.187Z,52.23
2019-02-02T05:57:08.072Z,48.20
2019-02-02T05:59:55.994Z,52.57
2019-02-02T06:02:43.568Z,53.40
2019-02-02T06:05:31.576Z,49.27
2019-02-02T06:08:19.648Z,35.73
2019-02-02T06:11:07.258Z,45.97
2019-02-02T06:13:54.901Z,50.30
2019-02-02T06:16:43.239Z,48.37
2019-02-02T06:19:31.187Z,49.57
2019-02-02T06:22:19.028Z,48.17
2019-02-02T06:25:08.408Z,44.97
2019-02-02T06:27:56.473Z,52.93
2019-02-02T06:30:44.290Z,52.53
2019-02-02T06:33:31.787Z,52.00
2019-02-02T06:36:19.935Z,50.73
2019-02-02T06:39:08.690Z,50.03
2019-02-02T06:41:56.306Z,54.37
2019-02-02T06:44:44.188Z,45.50
2019-02-02T06:47:32.082Z,48.97
2019-02-02T06:50:19.861Z,45.53
2019-02-02T06:53:07.519Z,52.23
2019-02-02T06:55:55.029Z,43.93
2019-02-02T06:58:42.971Z,53.70
2019-02-02T07:01:30.975Z,54.33
2019-02-02T07:04:18.978Z,49.30
2019-02-02T07:07:06.985Z,55.97
2019-02-02T07:09:54.945Z,52.23
2019-02-02T07:12:42.958Z,50.17
2019-02-02T07:15:30.806Z,48.63
2019-02-02T07:18:18.605Z,56.07
2019-02-02T07:21:06.804Z,47.93
2019-02-02T07:23:54.555Z,53.53
2019-02-02T07:26:42.340Z,52.80
2019-02-02T07:29:30.351Z,50.53
2019-02-02T07:32:18.302Z,48.80
2019-02-02T07:35:08.021Z,58.77
2019-02-02T07:37:55.898Z,48.83
2019-02-02T07:40:43.646Z,47.77
2019-02-02T07:43:31.525Z,46.40
2019-02-02T07:46:21.389Z,48.70
2019-02-02T07:49:08.680Z,49.20
2019-02-02T07:51:56.250Z,47.57
2019-02-02T07:54:44.168Z,47.43
2019-02-02T07:57:32.181Z,46.10
2019-02-02T08:00:25.713Z,41.87
2019-02-02T08:03:13.880Z,49.40
2019-02-02T08:06:01.947Z,48.07
2019-02-02T08:08:50.187Z,47.13
2019-02-02T08:11:38.528Z,55.17
2019-02-02T08:14:26.410Z,51.70
2019-02-02T08:17:14.574Z,45.93
2019-02-02T08:20:02.427Z,42.17
2019-02-02T08:22:50.651Z,39.27
2019-02-02T08:25:39.189Z,43.03
2019-02-02T08:28:27.244Z,48.30
2019-02-02T08:31:15.346Z,45.03
2019-02-02T08:34:03.620Z,50.87
2019-02-02T08:36:51.679Z,51.83
2019-02-02T08:39:39.491Z,50.90
2019-02-02T08:42:27.187Z,51.07
2019-02-02T08:45:15.405Z,52.77
2019-02-02T08:48:03.470Z,56.23
2019-02-02T08:50:51.609Z,56.43
2019-02-02T08:53:39.496Z,60.47
2019-02-02T08:56:27.788Z,53.87
2019-02-02T08:59:15.795Z,46.10
2019-02-02T09:02:03.795Z,54.03
2019-02-02T09:04:52.007Z,50.67
2019-02-02T09:07:39.990Z,64.80
2019-02-02T09:10:28.905Z,65.40
2019-02-02T09:13:17.233Z,61.17
2019-02-02T09:16:05.303Z,63.77
2019-02-02T09:18:53.159Z,58.97
2019-02-02T09:21:41.133Z,61.23
2019-02-02T09:24:29.173Z,60.60
2019-02-02T09:27:17.434Z,61.73
2019-02-02T09:30:09.859Z,64.03
2019-02-02T09:32:57.973Z,53.90
2019-02-02T09:35:45.819Z,65.87
2019-02-02T09:38:34.242Z,185.53
2019-02-02T09:41:22.177Z,57.87
2019-02-02T09:44:09.748Z,59.13
2019-02-02T09:46:57.973Z,60.57
2019-02-02T09:49:45.976Z,57.93
2019-02-02T09:52:34.139Z,51.43
2019-02-02T09:55:23.385Z,62.30
2019-02-02T09:58:12.386Z,48.70
2019-02-02T10:01:00.192Z,53.77
2019-02-02T10:03:48.542Z,46.03
2019-02-02T10:06:36.551Z,44.73
2019-02-02T10:09:24.534Z,46.27
2019-02-02T10:12:12.529Z,48.93
2019-02-02T10:15:00.639Z,46.80
2019-02-02T10:17:49.816Z,53.87
2019-02-02T10:20:37.917Z,44.47
2019-02-02T10:23:25.979Z,47.47
2019-02-02T10:26:13.614Z,52.07
2019-02-02T10:29:01.729Z,50.57
2019-02-02T10:31:49.436Z,51.90
2019-02-02T10:34:37.109Z,52.67
2019-02-02T10:37:25.108Z,46.60
2019-02-02T10:40:13.656Z,52.07
2019-02-02T10:43:01.784Z,51.00
2019-02-02T10:45:50.813Z,55.53
2019-02-02T10:48:38.648Z,53.13
2019-02-02T10:51:26.973Z,56.63
2019-02-02T10:54:15.256Z,52.73
2019-02-02T10:57:03.223Z,52.73
2019-02-02T10:59:51.195Z,70.87
2019-02-02T11:02:39.411Z,49.17
2019-02-02T11:05:28.020Z,44.03
2019-02-02T11:08:15.944Z,53.93
2019-02-02T11:11:04.107Z,48.90
2019-02-02T11:13:52.305Z,54.60
2019-02-02T11:16:40.437Z,74.40
2019-02-02T11:19:28.363Z,62.67
2019-02-02T11:22:16.500Z,63.80
2019-02-02T11:25:06.554Z,60.20
2019-02-02T11:27:54.856Z,53.77
2019-02-02T11:30:42.772Z,63.97
2019-02-02T11:33:30.590Z,68.60
2019-02-02T11:36:18.749Z,59.23
2019-02-02T11:39:07.837Z,62.23
2019-02-02T11:41:55.684Z,61.90
2019-02-02T11:44:43.338Z,64.23
2019-02-02T11:47:31.005Z,70.73
2019-02-02T11:50:19.300Z,72.90
2019-02-02T11:53:07.214Z,66.80
2019-02-02T11:55:55.303Z,61.93
2019-02-02T11:58:43.394Z,74.13
2019-02-02T12:01:31.608Z,61.20
2019-02-02T12:04:19.641Z,61.17
2019-02-02T12:07:07.677Z,62.00
2019-02-02T12:09:55.525Z,57.57
2019-02-02T12:12:43.875Z,51.27
2019-02-02T12:15:31.764Z,49.03
2019-02-02T12:18:19.434Z,50.03
2019-02-02T12:21:07.394Z,48.77
2019-02-02T12:23:55.643Z,56.03
2019-02-02T12:26:43.546Z,52.27
2019-02-02T12:29:31.833Z,52.83
2019-02-02T12:32:26.911Z,56.63
2019-02-02T12:35:11.799Z,60.43
2019-02-02T12:37:59.662Z,56.20
2019-02-02T12:40:47.502Z,46.30
2019-02-02T12:43:35.867Z,46.57
2019-02-02T12:46:23.707Z,50.87
2019-02-02T12:49:11.917Z,52.27
2019-02-02T12:51:59.926Z,53.70
2019-02-02T12:54:47.755Z,56.80
2019-02-02T12:57:35.842Z,53.47
2019-02-02T13:00:23.724Z,49.87
2019-02-02T13:03:11.996Z,51.23
2019-02-02T13:05:59.849Z,49.23
2019-02-02T13:08:47.895Z,53.47
2019-02-02T13:11:36.321Z,48.30
2019-02-02T13:14:24.524Z,58.60
2019-02-02T13:17:12.619Z,70.50
2019-02-02T13:20:00.812Z,58.73
2019-02-02T13:22:49.048Z,57.70
2019-02-02T13:25:37.230Z,58.77
2019-02-02T13:28:25.494Z,58.13
2019-02-02T13:31:13.365Z,55.37
2019-02-02T13:34:01.611Z,51.60
2019-02-02T13:36:49.680Z,61.37
2019-02-02T13:39:37.715Z,64.33
2019-02-02T13:42:25.457Z,58.70
2019-02-02T13:45:13.659Z,60.93
2019-02-02T13:48:02.272Z,56.80
2019-02-02T13:50:50.447Z,60.07
2019-02-02T13:53:38.421Z,64.47
2019-02-02T13:56:26.271Z,67.93
2019-02-02T13:59:14.279Z,57.63
2019-02-02T14:02:01.932Z,53.17
2019-02-02T14:04:49.536Z,42.33
2019-02-02T14:07:37.715Z,51.87
2019-02-02T14:10:27.041Z,49.47
2019-02-02T14:13:16.953Z,48.93
2019-02-02T14:16:04.730Z,47.30
2019-02-02T14:18:52.627Z,54.90
2019-02-02T14:21:40.734Z,56.50
2019-02-02T14:24:28.733Z,52.33
2019-02-02T14:27:16.839Z,54.97
2019-02-02T14:30:08.150Z,48.67
2019-02-02T14:32:56.555Z,60.53
2019-02-02T14:35:44.654Z,49.00
2019-02-02T14:38:32.454Z,55.57
2019-02-02T14:41:20.288Z,54.27
2019-02-02T14:44:08.375Z,54.23
2019-02-02T14:46:56.426Z,53.73
2019-02-02T14:49:44.880Z,53.77
2019-02-02T14:52:32.966Z,52.00
2019-02-02T14:55:25.927Z,53.80
2019-02-02T14:58:14.215Z,51.03
2019-02-02T15:01:02.694Z,52.93
2019-02-02T15:03:50.559Z,48.73
2019-02-02T15:06:38.593Z,57.33
2019-02-02T15:09:26.706Z,44.37
2019-02-02T15:12:14.383Z,45.10
2019-02-02T15:15:02.369Z,75.43
2019-02-02T15:17:50.473Z,49.93
2019-02-02T15:20:38.658Z,43.30
2019-02-02T15:23:26.361Z,46.17
2019-02-02T15:26:14.272Z,40.07
2019-02-02T15:29:02.218Z,37.63
2019-02-02T15:31:50.146Z,30.50
2019-02-02T15:34:38.365Z,43.30
2019-02-02T15:37:26.349Z,38.17
2019-02-02T15:40:16.183Z,43.33
2019-02-02T15:43:04.207Z,37.73
2019-02-02T15:45:52.518Z,37.70
2019-02-02T15:48:42.563Z,35.67
2019-02-02T15:51:40.037Z,35.70
2019-02-02T15:54:19.587Z,31.07
2019-02-02T15:57:07.198Z,43.33
2019-02-02T15:59:55.453Z,39.30
2019-02-02T16:02:43.275Z,38.97
2019-02-02T16:05:31.539Z,44.87
2019-02-02T16:08:19.632Z,35.23
2019-02-02T16:11:07.805Z,41.43
2019-02-02T16:13:55.963Z,41.20
2019-02-02T16:16:43.901Z,51.23
2019-02-02T16:19:31.676Z,48.33
2019-02-02T16:22:19.898Z,39.50
2019-02-02T16:25:08.952Z,39.17
2019-02-02T16:27:56.810Z,36.97
2019-02-02T16:30:44.820Z,33.57
2019-02-02T16:33:32.760Z,36.83
2019-02-02T16:36:21.079Z,55.27
2019-02-02T16:39:09.762Z,41.70
2019-02-02T16:41:57.733Z,42.10
2019-02-02T16:44:45.496Z,51.83
2019-02-02T16:47:33.721Z,48.47
2019-02-02T16:50:22.192Z,47.50
2019-02-02T16:53:10.350Z,57.63
2019-02-02T16:55:58.494Z,51.83
2019-02-02T16:58:46.356Z,44.87
2019-02-02T17:01:34.401Z,47.67
2019-02-02T17:04:22.613Z,47.53
2019-02-02T17:07:10.987Z,49.57
2019-02-02T17:09:58.784Z,46.27
2019-02-02T17:12:46.985Z,45.67
2019-02-02T17:15:35.270Z,43.37
2019-02-02T17:18:23.257Z,42.17
2019-02-02T17:21:10.895Z,44.97
2019-02-02T17:23:59.073Z,47.27
2019-02-02T17:26:47.308Z,49.50
2019-02-02T17:29:35.498Z,53.97
2019-02-02T17:32:23.713Z,43.97
2019-02-02T17:35:12.404Z,48.23
2019-02-02T17:38:00.057Z,58.47
2019-02-02T17:40:47.920Z,56.70
2019-02-02T17:43:35.867Z,53.63
2019-02-02T17:46:24.011Z,47.90
2019-02-02T17:49:12.379Z,50.37
2019-02-02T17:52:00.484Z,48.47
2019-02-02T17:54:48.294Z,43.47
2019-02-02T17:57:36.650Z,54.03
2019-02-02T18:00:35.050Z,44.97
2019-02-02T18:03:23.128Z,45.37
2019-02-02T18:06:11.134Z,49.27
2019-02-02T18:08:59.329Z,53.13
2019-02-02T18:11:47.036Z,49.53
2019-02-02T18:14:34.714Z,48.93
2019-02-02T18:17:22.403Z,50.97
2019-02-02T18:20:12.371Z,52.80
2019-02-02T18:23:00.195Z,60.93
2019-02-02T18:25:48.438Z,55.47
2019-02-02T18:28:36.692Z,54.13
2019-02-02T18:31:24.644Z,56.53
2019-02-02T18:34:13.093Z,54.60
2019-02-02T18:37:00.815Z,61.73
2019-02-02T18:39:48.748Z,56.83
2019-02-02T18:42:36.549Z,58.73
2019-02-02T18:45:26.097Z,57.63
2019-02-02T18:48:14.164Z,60.00
2019-02-02T18:51:02.326Z,62.97
2019-02-02T18:53:50.507Z,55.80
2019-02-02T18:56:38.339Z,79.70
2019-02-02T18:59:26.691Z,66.93
2019-02-02T19:02:14.426Z,56.07
2019-02-02T19:05:04.149Z,51.37
2019-02-02T19:07:51.812Z,53.10
2019-02-02T19:10:40.226Z,43.40
2019-02-02T19:13:28.106Z,49.43
2019-02-02T19:16:15.940Z,45.70
2019-02-02T19:19:04.204Z,51.80
2019-02-02T19:21:52.725Z,47.50
2019-02-02T19:24:40.950Z,49.43
2019-02-02T19:27:29.119Z,49.17
2019-02-02T19:30:22.942Z,52.60
2019-02-02T19:33:10.779Z,53.77
2019-02-02T19:35:58.822Z,49.57
2019-02-02T19:38:46.932Z,50.73
2019-02-02T19:41:35.553Z,59.13
2019-02-02T19:44:23.759Z,52.10
2019-02-02T19:47:16.068Z,51.70
2019-02-02T19:50:01.316Z,49.47
2019-02-02T19:52:49.539Z,46.37
2019-02-02T19:55:37.564Z,50.60
2019-02-02T19:58:25.561Z,49.73
2019-02-02T20:01:13.725Z,48.37
2019-02-02T20:04:01.805Z,58.07
2019-02-02T20:06:50.016Z,49.63
2019-02-02T20:09:37.582Z,51.20
2019-02-02T20:12:25.182Z,54.07
2019-02-02T20:15:15.492Z,52.07
2019-02-02T20:18:09.789Z,57.53
2019-02-02T20:20:52.615Z,48.43
2019-02-02T20:23:40.578Z,51.57
2019-02-02T20:26:28.882Z,45.17
2019-02-02T20:29:16.707Z,44.97
2019-02-02T20:32:04.530Z,49.17
2019-02-02T20:34:52.635Z,47.20
2019-02-02T20:37:40.611Z,47.43
2019-02-02T20:40:28.531Z,41.70
2019-02-02T20:43:16.223Z,47.17
2019-02-02T20:46:04.417Z,51.83
2019-02-02T20:48:52.407Z,51.23
2019-02-02T20:51:40.508Z,54.67
2019-02-02T20:54:28.351Z,52.40
2019-02-02T20:57:16.126Z,51.00
2019-02-02T21:00:04.820Z,47.13
2019-02-02T21:02:52.947Z,43.57
2019-02-02T21:05:51.549Z,52.50
2019-02-02T21:08:30.257Z,52.00
2019-02-02T21:11:17.749Z,47.07
2019-02-02T21:14:06.049Z,48.13
2019-02-02T21:16:54.403Z,50.27
2019-02-02T21:19:43.428Z,50.70
2019-02-02T21:22:31.021Z,56.47
2019-02-02T21:25:19.214Z,51.80
2019-02-02T21:28:08.278Z,52.40
2019-02-02T21:30:56.466Z,49.97
2019-02-02T21:33:45.137Z,55.63
2019-02-02T21:36:32.918Z,49.23
2019-02-02T21:39:21.483Z,50.07
2019-02-02T21:42:09.373Z,53.97
2019-02-02T21:44:57.553Z,52.77
2019-02-02T21:47:45.895Z,54.03
2019-02-02T21:50:33.850Z,53.63
2019-02-02T21:53:21.907Z,49.10
2019-02-02T21:56:10.234Z,43.47
2019-02-02T21:58:58.559Z,42.73
2019-02-02T22:01:46.525Z,44.70
2019-02-02T22:04:34.870Z,49.40
2019-02-02T22:07:22.645Z,44.33
2019-02-02T22:10:11.131Z,44.60
2019-02-02T22:12:59.450Z,46.53
2019-02-02T22:15:47.442Z,39.07
2019-02-02T22:18:35.348Z,39.10
2019-02-02T22:21:23.283Z,37.87
2019-02-02T22:24:11.361Z,37.93
2019-02-02T22:27:00.066Z,40.00
2019-02-02T22:29:48.220Z,38.87
2019-02-02T22:32:36.321Z,43.73
2019-02-02T22:35:24.221Z,41.80
2019-02-02T22:38:12.006Z,41.67
2019-02-02T22:41:00.360Z,42.30
2019-02-02T22:43:48.384Z,41.93
2019-02-02T22:46:36.264Z,39.33
2019-02-02T22:49:24.365Z,39.50
2019-02-02T22:52:12.109Z,39.47
2019-02-02T22:55:00.326Z,40.17
2019-02-02T22:57:48.733Z,40.40
2019-02-02T23:01:06.853Z,40.30
2019-02-02T23:04:47.421Z,39.93
2019-02-02T23:08:03.614Z,39.00
2019-02-02T23:11:36.276Z,43.83
2019-02-02T23:15:01.791Z,44.87
2019-02-02T23:17:49.868Z,41.23
2019-02-02T23:20:37.915Z,41.07
2019-02-02T23:23:25.835Z,41.80
2019-02-02T23:26:13.994Z,39.17
2019-02-02T23:29:01.935Z,45.00
2019-02-02T23:31:50.915Z,45.40
2019-02-02T23:34:38.987Z,47.20
2019-02-02T23:37:27.391Z,42.90
2019-02-02T23:40:15.562Z,40.87
2019-02-02T23:43:03.985Z,44.63
2019-02-02T23:45:52.284Z,43.23
2019-02-02T23:48:40.563Z,48.67
2019-02-02T23:51:28.445Z,47.77
2019-02-02T23:54:16.106Z,41.83
2019-02-02T23:57:04.079Z,45.43
2019-02-02T23:59:52.596Z,41.67
